Time;durP1;ratioP1;P1;durP2;ratioP2;P2;SDS_P1;SDS_P2;PMS_P1;PMS_P2;Temp;Humidity;BMP_temperature;BMP_pressure;BME280_temperature;BME280_humidity;BME280_pressure;Samples;Min_cycle;Max_cycle;Signal;HPM_P1;HPM_P2
2022/11/26 00:00:25;;;;;;;2.13;1.30;;;;;;;3.85;80.20;95120.88;5051453;28;20200;-78
2022/11/26 00:02:53;;;;;;;3.00;1.70;;;;;;;3.83;80.27;95123.84;5051093;28;20297;-78
2022/11/26 00:05:21;;;;;;;1.63;1.30;;;;;;;3.77;80.51;95118.78;5051365;28;20287;-77
2022/11/26 00:07:53;;;;;;;2.67;1.58;;;;;;;3.68;80.77;95115.06;5064571;28;20207;-77
2022/11/26 00:10:22;;;;;;;3.20;2.17;;;;;;;3.64;81.13;95122.84;5050767;28;20204;-78
2022/11/26 00:12:49;;;;;;;7.18;4.05;;;;;;;3.59;81.40;95122.84;5050835;28;20207;-78
2022/11/26 00:15:21;;;;;;;6.93;4.57;;;;;;;3.48;81.88;95119.38;5051374;28;20288;-77
2022/11/26 00:17:51;;;;;;;7.13;4.20;;;;;;;3.38;82.40;95124.75;5050578;28;20412;-77
2022/11/26 00:20:19;;;;;;;7.32;4.13;;;;;;;3.36;82.53;95118.88;5057754;28;20207;-78
2022/11/26 00:22:49;;;;;;;6.72;4.72;;;;;;;3.23;82.90;95119.41;5056956;28;20257;-77
2022/11/26 00:25:18;;;;;;;7.50;4.50;;;;;;;3.24;83.39;95120.22;5057857;28;20258;-76
2022/11/26 00:27:45;;;;;;;7.75;3.78;;;;;;;3.12;83.80;95118.63;5051311;28;20216;-77
2022/11/26 00:30:20;;;;;;;7.07;3.97;;;;;;;3.20;84.13;95114.59;5050621;28;20211;-76
2022/11/26 00:32:49;;;;;;;7.43;4.57;;;;;;;3.20;84.34;95120.75;5050743;28;20292;-77
2022/11/26 00:35:16;;;;;;;6.57;4.43;;;;;;;3.20;84.49;95114.59;5050303;28;20288;-76
2022/11/26 00:37:46;;;;;;;9.85;4.85;;;;;;;3.12;84.92;95109.78;5051119;28;20592;-77
2022/11/26 00:40:22;;;;;;;2.50;1.70;;;;;;;3.09;85.22;95108.44;5050220;28;20203;-77
2022/11/26 00:42:49;;;;;;;4.20;1.70;;;;;;;3.11;85.67;95116.22;5050797;28;20211;-77
2022/11/26 00:45:18;;;;;;;2.40;1.73;;;;;;;3.01;86.04;95121.53;5053365;28;20206;-78
2022/11/26 00:47:45;;;;;;;2.28;1.73;;;;;;;3.02;86.54;95123.16;5059816;28;20204;-77
2022/11/26 00:50:16;;;;;;;3.58;2.40;;;;;;;2.96;86.80;95119.69;5051012;28;20207;-77
2022/11/26 00:52:45;;;;;;;3.85;2.10;;;;;;;2.90;87.63;95125.28;5051154;28;20200;-77
2022/11/26 00:55:27;;;;;;;2.60;1.73;;;;;;;2.87;88.92;95126.63;5050874;28;20752;-78
2022/11/26 00:57:54;;;;;;;6.00;3.00;;;;;;;2.97;89.28;95139.22;5050512;28;20250;-77
2022/11/26 01:00:23;;;;;;;5.28;2.67;;;;;;;2.91;88.22;95142.97;5063993;28;20203;-77
2022/11/26 01:02:50;;;;;;;5.20;2.90;;;;;;;2.92;88.30;95136.53;5050592;28;20207;-77
2022/11/26 01:05:20;;;;;;;4.32;2.83;;;;;;;2.79;88.06;95125.28;5050446;28;20605;-77
2022/11/26 01:07:47;;;;;;;4.05;2.63;;;;;;;2.69;88.62;95124.50;5050529;28;20208;-78
2022/11/26 01:10:20;;;;;;;4.88;2.67;;;;;;;2.73;89.39;95134.38;5050562;28;20212;-78
2022/11/26 01:12:47;;;;;;;3.42;2.38;;;;;;;2.75;89.39;95129.56;5050541;28;20203;-78
2022/11/26 01:15:16;;;;;;;2.40;2.08;;;;;;;2.46;88.75;95144.50;5049943;28;20250;-77
2022/11/26 01:17:43;;;;;;;2.40;1.65;;;;;;;2.39;89.00;95152.78;5052574;28;20208;-76
2022/11/26 01:20:24;;;;;;;4.97;2.10;;;;;;;2.35;89.30;95154.34;5060206;28;20219;-78
2022/11/26 01:22:52;;;;;;;3.88;1.52;;;;;;;2.33;89.29;95158.34;5049297;28;20242;-77
2022/11/26 01:25:19;;;;;;;1.60;1.10;;;;;;;2.32;88.88;95146.06;5061306;28;20214;-77
2022/11/26 01:27:46;;;;;;;2.75;1.98;;;;;;;2.48;88.76;95145.03;5069259;28;20268;-77
2022/11/26 01:30:18;;;;;;;3.15;1.77;;;;;;;2.50;88.37;95148.25;5069577;28;20257;-77
2022/11/26 01:32:45;;;;;;;1.42;1.25;;;;;;;2.48;88.44;95153.03;5058409;28;20724;-77
2022/11/26 01:35:12;;;;;;;8.93;4.90;;;;;;;2.46;88.88;95163.22;5069898;28;20222;-77
2022/11/26 01:37:41;;;;;;;9.82;5.63;;;;;;;2.45;88.97;95162.44;5069659;28;20426;-78
2022/11/26 01:40:40;;;;;;;8.82;5.63;;;;;;;2.28;90.10;95155.69;5056057;28;20733;-78
2022/11/26 01:43:14;;;;;;;10.48;6.50;;;;;;;2.16;90.78;95161.25;5040651;28;20207;-77
2022/11/26 01:45:41;;;;;;;15.65;7.90;;;;;;;2.16;91.07;95166.59;5049071;28;20237;-77
2022/11/26 01:48:23;;;;;;;12.10;6.93;;;;;;;2.11;91.50;95162.03;5049697;28;20654;-77
2022/11/26 01:50:57;;;;;;;9.98;5.43;;;;;;;2.08;91.97;95162.53;5048397;28;20203;-76
2022/11/26 01:53:52;;;;;;;6.85;4.22;;;;;;;2.09;91.88;95158.81;5051860;28;20210;-76
2022/11/26 01:56:26;;;;;;;13.45;6.57;;;;;;;2.01;92.32;95156.66;5048524;28;20255;-77
2022/11/26 01:58:58;;;;;;;10.80;6.30;;;;;;;2.07;92.37;95160.94;5049255;28;20294;-77
2022/11/26 02:01:24;;;;;;;9.13;5.80;;;;;;;2.08;92.33;95157.19;5049112;28;20207;-76
2022/11/26 02:04:00;;;;;;;9.93;5.63;;;;;;;2.08;92.25;95164.41;5049485;28;20199;-76
2022/11/26 02:06:31;;;;;;;8.93;5.65;;;;;;;2.13;92.14;95162.56;5048905;28;20253;-76
2022/11/26 02:09:02;;;;;;;11.10;5.53;;;;;;;2.17;91.85;95162.06;5048353;28;20299;-77
2022/11/26 02:11:29;;;;;;;10.43;5.55;;;;;;;2.23;91.69;95169.00;5048538;28;20199;-76
2022/11/26 02:14:00;;;;;;;8.68;5.38;;;;;;;2.31;91.95;95165.84;5049233;28;20211;-77
2022/11/26 02:16:44;;;;;;;12.32;6.05;;;;;;;2.24;92.20;95162.59;5048588;28;20270;-76
2022/11/26 02:19:35;;;;;;;6.65;3.03;;;;;;;2.26;92.50;95160.47;5048718;28;20262;-76
2022/11/26 02:22:12;;;;;;;11.60;6.70;;;;;;;2.16;92.97;95163.13;5047714;28;20531;-76
2022/11/26 02:24:49;;;;;;;10.80;6.85;;;;;;;2.12;93.88;95160.97;5067898;28;20252;-77
2022/11/26 02:27:39;;;;;;;9.70;6.43;;;;;;;2.03;94.18;95159.88;5053990;28;20287;-76
2022/11/26 02:30:09;;;;;;;3.75;2.22;;;;;;;2.00;94.45;95157.72;5048620;28;20203;-77
2022/11/26 02:33:02;;;;;;;4.25;2.85;;;;;;;1.98;94.78;95157.16;5061606;28;20235;-76
2022/11/26 02:35:34;;;;;;;6.88;3.17;;;;;;;2.07;94.52;95163.59;5048941;28;20660;-76
2022/11/26 02:38:05;;;;;;;4.70;2.08;;;;;;;2.06;94.56;95155.84;5049046;28;20211;-76
2022/11/26 02:40:32;;;;;;;6.32;1.98;;;;;;;1.95;94.33;95152.34;5048842;28;20246;-76
2022/11/26 02:42:59;;;;;;;6.75;2.70;;;;;;;2.02;94.19;95152.13;5052605;28;20251;-77
2022/11/26 02:45:30;;;;;;;3.28;2.25;;;;;;;2.12;94.50;95160.97;5051517;28;20275;-77
2022/11/26 02:48:00;;;;;;;5.75;3.05;;;;;;;2.06;95.18;95167.34;5059083;28;20199;-78
2022/11/26 02:50:30;;;;;;;3.08;1.92;;;;;;;2.01;94.25;95170.00;5048750;28;20519;-77
2022/11/26 02:52:58;;;;;;;9.88;2.85;;;;;;;1.91;94.02;95169.97;5047921;28;20242;-78
2022/11/26 02:55:30;;;;;;;3.03;2.75;;;;;;;1.89;93.67;95168.63;5048698;28;20232;-76
2022/11/26 02:57:57;;;;;;;4.75;2.85;;;;;;;1.62;93.32;95158.06;5048807;28;20567;-77
2022/11/26 03:00:25;;;;;;;2.28;2.05;;;;;;;1.62;93.17;95172.22;5047943;28;20671;-78
2022/11/26 03:03:00;;;;;;;4.50;2.55;;;;;;;1.64;93.07;95172.72;5048511;28;20211;-77
2022/11/26 03:05:31;;;;;;;5.57;2.63;;;;;;;1.69;92.90;95175.44;5048487;28;20199;-76
2022/11/26 03:07:59;;;;;;;5.18;2.10;;;;;;;1.61;93.72;95180.47;5048272;28;20671;-77
2022/11/26 03:10:28;;;;;;;4.60;1.90;;;;;;;1.48;93.74;95186.25;5048309;28;20265;-77
2022/11/26 03:12:55;;;;;;;4.05;2.50;;;;;;;1.56;94.43;95191.09;5048873;28;20200;-77
2022/11/26 03:15:22;;;;;;;6.03;3.25;;;;;;;1.54;94.15;95193.22;5048424;28;20240;-77
2022/11/26 03:17:49;;;;;;;2.10;1.90;;;;;;;1.69;94.63;95190.66;5048212;28;20204;-77
2022/11/26 03:20:17;;;;;;;2.03;1.73;;;;;;;1.51;93.18;95188.41;5048466;28;20211;-77
2022/11/26 03:22:44;;;;;;;3.50;2.08;;;;;;;1.51;93.28;95193.72;5052004;28;20206;-77
2022/11/26 03:25:12;;;;;;;6.18;2.70;;;;;;;1.44;93.92;95201.97;5057278;28;20223;-77
2022/11/26 03:27:39;;;;;;;5.97;3.38;;;;;;;1.48;93.59;95205.75;5048009;28;20204;-77
2022/11/26 03:30:07;;;;;;;4.32;2.42;;;;;;;1.40;93.36;95208.88;5058967;28;20195;-77
2022/11/26 03:32:34;;;;;;;3.22;2.13;;;;;;;1.34;93.24;95210.72;5048810;28;20660;-77
2022/11/26 03:35:01;;;;;;;8.88;5.55;;;;;;;1.30;93.76;95224.81;5048154;28;20238;-75
2022/11/26 03:37:29;;;;;;;11.98;5.85;;;;;;;1.37;93.32;95220.88;5048297;28;20261;-75
2022/11/26 03:39:56;;;;;;;11.00;6.75;;;;;;;1.36;93.36;95231.81;5048180;28;20281;-75
2022/11/26 03:42:22;;;;;;;10.98;6.90;;;;;;;1.43;93.83;95225.19;5048275;28;20238;-75
2022/11/26 03:44:49;;;;;;;10.43;6.70;;;;;;;1.37;93.83;95231.53;5060145;28;20692;-75
2022/11/26 03:47:16;;;;;;;9.88;6.45;;;;;;;1.37;94.08;95215.53;5052250;28;20226;-76
2022/11/26 03:49:43;;;;;;;14.13;6.93;;;;;;;1.33;94.44;95214.44;5051432;28;20658;-75
2022/11/26 03:52:09;;;;;;;11.70;7.10;;;;;;;1.26;94.68;95229.84;5071122;28;20207;-75
2022/11/26 03:54:37;;;;;;;12.82;7.75;;;;;;;1.31;95.05;95235.25;5070690;28;20242;-75
2022/11/26 03:57:04;;;;;;;11.75;7.63;;;;;;;1.14;95.76;95241.75;5071158;28;20636;-75
2022/11/26 03:59:31;;;;;;;14.40;8.25;;;;;;;1.08;96.26;95250.78;5058527;28;20659;-75
2022/11/26 04:01:58;;;;;;;13.68;7.28;;;;;;;1.18;97.01;95249.00;5050877;28;20214;-76
2022/11/26 04:04:24;;;;;;;9.85;5.95;;;;;;;1.16;97.18;95255.66;5064442;28;20199;-75
2022/11/26 04:06:51;;;;;;;4.32;2.05;;;;;;;1.22;96.55;95255.44;5051209;28;20211;-77
2022/11/26 04:09:18;;;;;;;4.20;2.85;;;;;;;1.35;95.91;95255.03;5051033;28;20578;-77
2022/11/26 04:11:46;;;;;;;11.85;7.18;;;;;;;1.31;96.27;95258.44;5051196;28;20310;-77
2022/11/26 04:14:13;;;;;;;14.55;7.03;;;;;;;1.27;96.51;95268.81;5051552;28;20204;-76
2022/11/26 04:16:40;;;;;;;15.27;8.13;;;;;;;1.21;96.20;95269.84;5063870;28;20364;-77
2022/11/26 04:19:06;;;;;;;12.13;7.60;;;;;;;1.28;96.07;95274.97;5050676;28;20203;-77
2022/11/26 04:21:33;;;;;;;14.02;7.72;;;;;;;1.13;96.31;95272.16;5050813;28;20606;-77
2022/11/26 04:24:00;;;;;;;6.82;3.05;;;;;;;0.96;97.18;95278.38;5052181;28;20721;-77
2022/11/26 04:26:27;;;;;;;3.28;2.03;;;;;;;1.08;97.42;95286.25;5070512;28;20214;-77
2022/11/26 04:28:55;;;;;;;5.30;2.70;;;;;;;1.18;97.01;95282.88;5070364;28;20211;-76
2022/11/26 04:31:21;;;;;;;8.25;2.22;;;;;;;1.22;97.54;95282.13;5071051;28;20211;-76
2022/11/26 04:33:48;;;;;;;2.75;1.70;;;;;;;1.30;97.52;95287.00;5070309;28;20239;-76
2022/11/26 04:36:15;;;;;;;8.40;5.88;;;;;;;1.33;97.18;95289.16;5070497;28;20697;-76
2022/11/26 04:38:42;;;;;;;5.38;2.95;;;;;;;1.35;96.35;95292.41;5070435;28;20210;-76
2022/11/26 04:41:08;;;;;;;4.40;2.50;;;;;;;1.34;96.75;95287.31;5071004;28;20199;-76
2022/11/26 04:43:35;;;;;;;5.95;3.10;;;;;;;1.36;96.67;95299.34;5070855;28;20257;-76
2022/11/26 04:46:04;;;;;;;7.60;3.30;;;;;;;1.29;97.04;95308.59;5070769;28;20276;-77
2022/11/26 04:48:30;;;;;;;5.97;2.45;;;;;;;1.35;97.26;95305.75;5067714;28;20215;-75
2022/11/26 04:50:57;;;;;;;4.70;2.50;;;;;;;1.36;97.52;95310.03;5049648;28;20318;-76
2022/11/26 04:53:24;;;;;;;4.00;2.83;;;;;;;1.34;97.48;95312.13;5049753;28;20203;-77
2022/11/26 04:55:52;;;;;;;4.97;3.22;;;;;;;1.45;97.39;95313.03;5048647;28;20685;-76
2022/11/26 04:58:20;;;;;;;5.05;2.97;;;;;;;1.40;97.31;95321.78;5049950;28;20199;-77
2022/11/26 05:00:47;;;;;;;5.97;3.58;;;;;;;1.34;96.75;95328.16;5050086;28;20207;-76
2022/11/26 05:03:15;;;;;;;5.60;2.58;;;;;;;1.36;96.29;95320.69;5063548;28;20249;-77
2022/11/26 05:05:42;;;;;;;2.38;1.95;;;;;;;1.19;97.27;95330.66;5050277;28;20269;-76
2022/11/26 05:08:08;;;;;;;4.25;2.35;;;;;;;1.08;98.64;95328.94;5053680;28;20214;-76
2022/11/26 05:10:35;;;;;;;4.28;2.83;;;;;;;1.02;99.15;95329.94;5060160;28;20200;-76
2022/11/26 05:13:02;;;;;;;4.07;3.15;;;;;;;1.04;99.11;95333.16;5049925;28;20207;-77
2022/11/26 05:15:29;;;;;;;7.60;3.53;;;;;;;0.94;99.28;95333.06;5049914;28;20777;-75
2022/11/26 05:17:55;;;;;;;6.32;3.38;;;;;;;0.96;99.97;95339.72;5050370;28;20200;-75
2022/11/26 05:20:24;;;;;;;10.18;4.18;;;;;;;1.12;99.37;95342.56;5049797;28;20720;-76
2022/11/26 05:22:50;;;;;;;16.48;9.82;;;;;;;1.20;99.37;95342.94;5051027;28;20195;-76
2022/11/26 05:25:17;;;;;;;7.40;4.38;;;;;;;1.23;99.17;95342.41;5049885;28;20241;-76
2022/11/26 05:27:44;;;;;;;7.60;3.08;;;;;;;1.27;99.02;95343.53;5062898;28;20238;-76
2022/11/26 05:30:12;;;;;;;15.38;4.03;;;;;;;1.40;98.71;95343.13;5049948;28;20204;-76
2022/11/26 05:32:39;;;;;;;4.57;3.08;;;;;;;1.26;98.17;95347.25;5054656;28;20579;-77
2022/11/26 05:35:06;;;;;;;11.75;3.63;;;;;;;1.22;98.57;95346.19;5057848;28;20231;-77
2022/11/26 05:37:34;;;;;;;4.55;3.53;;;;;;;1.18;98.11;95345.06;5050042;28;20254;-77
2022/11/26 05:40:01;;;;;;;3.08;2.75;;;;;;;1.35;97.59;95351.09;5061522;28;20624;-76
2022/11/26 05:42:28;;;;;;;5.65;3.38;;;;;;;1.35;97.52;95367.13;5050717;28;20729;-76
2022/11/26 05:44:55;;;;;;;5.68;3.53;;;;;;;1.36;97.17;95358.06;5049732;28;20672;-76
2022/11/26 05:47:21;;;;;;;3.85;2.88;;;;;;;1.34;96.23;95348.69;5050293;28;20204;-76
2022/11/26 05:49:48;;;;;;;9.25;2.60;;;;;;;1.39;96.30;95354.88;5049450;28;20203;-76
2022/11/26 05:52:15;;;;;;;4.97;3.42;;;;;;;1.16;95.25;95357.03;5049177;28;20211;-76
2022/11/26 05:54:43;;;;;;;3.67;2.35;;;;;;;1.26;96.12;95352.59;5048628;28;20648;-76
2022/11/26 05:57:10;;;;;;;6.75;2.88;;;;;;;1.37;96.03;95354.31;5048956;28;20645;-76
2022/11/26 05:59:37;;;;;;;3.33;2.55;;;;;;;1.48;95.31;95363.25;5062192;28;20195;-76
2022/11/26 06:02:04;;;;;;;6.38;3.00;;;;;;;1.42;95.23;95364.25;5049646;28;20285;-76
2022/11/26 06:04:30;;;;;;;5.22;2.53;;;;;;;1.49;95.50;95366.72;5049489;28;20261;-76
2022/11/26 06:06:57;;;;;;;5.47;3.58;;;;;;;1.49;95.27;95362.19;5049008;28;20211;-77
2022/11/26 06:09:24;;;;;;;6.00;4.03;;;;;;;1.50;95.31;95363.00;5052160;28;20204;-76
2022/11/26 06:11:52;;;;;;;8.52;4.25;;;;;;;1.56;95.36;95361.97;5064908;28;20230;-76
2022/11/26 06:14:19;;;;;;;5.57;3.25;;;;;;;1.73;94.58;95374.16;5060934;28;20207;-75
2022/11/26 06:16:46;;;;;;;5.50;2.08;;;;;;;1.79;94.10;95375.00;5049697;28;20289;-75
2022/11/26 06:19:13;;;;;;;6.07;3.63;;;;;;;1.78;94.11;95381.38;5049550;28;20257;-75
2022/11/26 06:21:39;;;;;;;9.38;3.53;;;;;;;1.86;94.71;95367.59;5049243;28;20495;-77
2022/11/26 06:24:07;;;;;;;8.75;4.07;;;;;;;2.12;94.76;95377.41;5047249;28;20211;-75
2022/11/26 06:26:33;;;;;;;4.97;3.00;;;;;;;2.19;93.95;95365.72;5049104;28;20246;-76
2022/11/26 06:29:02;;;;;;;7.35;3.53;;;;;;;2.13;93.61;95367.53;5053723;28;20195;-73
2022/11/26 06:31:28;;;;;;;4.43;3.10;;;;;;;2.18;93.19;95374.78;5057528;28;20232;-75
2022/11/26 06:33:56;;;;;;;5.53;3.40;;;;;;;2.24;92.93;95368.41;5051440;28;20289;-75
2022/11/26 06:36:23;;;;;;;8.48;3.80;;;;;;;2.37;93.06;95363.41;5048203;28;20320;-75
2022/11/26 06:38:50;;;;;;;6.53;2.95;;;;;;;2.45;92.51;95364.81;5048346;28;20666;-74
2022/11/26 06:41:17;;;;;;;3.95;3.15;;;;;;;2.46;92.30;95361.06;5049053;28;20293;-77
2022/11/26 06:43:44;;;;;;;13.52;3.70;;;;;;;2.73;91.87;95375.09;5051546;28;20210;-76
2022/11/26 06:46:12;;;;;;;4.95;3.08;;;;;;;2.78;91.08;95372.47;5058694;28;20216;-78
2022/11/26 06:48:40;;;;;;;4.72;3.20;;;;;;;2.91;90.60;95367.72;5048900;28;20195;-78
2022/11/26 06:51:10;;;;;;;7.15;4.15;;;;;;;3.18;89.54;95373.69;5055517;28;20206;-78
2022/11/26 06:53:37;;;;;;;12.80;5.95;;;;;;;3.17;89.94;95377.44;5050769;28;20673;-76
2022/11/26 06:56:06;;;;;;;4.78;3.03;;;;;;;3.30;89.51;95371.59;5048341;28;20231;-78
2022/11/26 06:58:33;;;;;;;6.68;3.67;;;;;;;3.32;88.37;95374.00;5061312;28;20637;-77
2022/11/26 07:01:00;;;;;;;4.72;3.83;;;;;;;3.15;89.01;95372.34;5047409;28;20250;-77
2022/11/26 07:03:28;;;;;;;5.00;3.53;;;;;;;3.44;88.44;95375.38;5053755;28;20203;-77
2022/11/26 07:05:55;;;;;;;5.93;4.07;;;;;;;3.58;88.58;95384.53;5056519;28;20204;-76
2022/11/26 07:08:21;;;;;;;7.18;3.35;;;;;;;3.69;87.77;95381.88;5048348;28;20215;-75
2022/11/26 07:10:48;;;;;;;4.75;3.78;;;;;;;3.60;87.45;95378.91;5048036;28;20204;-77
2022/11/26 07:13:17;;;;;;;5.53;3.97;;;;;;;3.87;87.71;95371.44;5053503;28;20700;-78
2022/11/26 07:15:44;;;;;;;7.70;5.13;;;;;;;4.11;87.25;95374.38;5054859;28;20376;-77
2022/11/26 07:18:10;;;;;;;9.70;5.20;;;;;;;4.14;87.64;95379.22;5048000;28;20257;-77
2022/11/26 07:20:39;;;;;;;6.05;4.40;;;;;;;4.20;86.57;95375.47;5048873;28;20257;-77
2022/11/26 07:23:05;;;;;;;4.95;2.78;;;;;;;4.33;85.67;95378.69;5052539;28;20207;-78
2022/11/26 07:25:32;;;;;;;7.00;3.83;;;;;;;4.42;85.42;95382.41;5051833;28;20284;-78
2022/11/26 07:27:59;;;;;;;5.35;2.88;;;;;;;4.65;85.21;95387.22;5065184;28;20207;-79
2022/11/26 07:30:26;;;;;;;5.45;3.13;;;;;;;4.66;84.48;95383.44;5051180;28;20210;-77
2022/11/26 07:32:52;;;;;;;7.43;3.35;;;;;;;4.76;84.00;95380.78;5050948;28;20239;-77
2022/11/26 07:35:19;;;;;;;4.68;2.88;;;;;;;4.94;82.98;95380.16;5051434;28;20594;-77
2022/11/26 07:37:47;;;;;;;9.45;4.47;;;;;;;4.95;82.58;95376.41;5051842;28;20256;-77
2022/11/26 07:40:15;;;;;;;5.65;2.97;;;;;;;4.84;83.46;95380.19;5051806;28;20543;-77
2022/11/26 07:42:42;;;;;;;9.82;4.47;;;;;;;4.88;83.38;95381.28;5063330;28;20277;-77
2022/11/26 07:45:09;;;;;;;6.45;2.20;;;;;;;4.54;83.78;95381.06;5051385;28;20215;-77
2022/11/26 07:47:36;;;;;;;4.97;3.28;;;;;;;4.73;83.06;95386.69;5053913;28;20825;-77
2022/11/26 07:50:03;;;;;;;3.83;3.22;;;;;;;4.57;83.83;95391.25;5059330;28;20613;-77
2022/11/26 07:52:30;;;;;;;3.80;3.05;;;;;;;4.66;83.84;95391.50;5059010;28;20204;-77
2022/11/26 07:54:58;;;;;;;7.50;3.95;;;;;;;4.90;83.01;95400.59;5058141;28;20230;-77
2022/11/26 07:57:25;;;;;;;10.45;4.10;;;;;;;5.03;82.32;95409.16;5064670;28;20230;-77
2022/11/26 07:59:52;;;;;;;5.43;3.33;;;;;;;5.18;81.72;95406.41;5060312;28;20203;-77
2022/11/26 08:02:19;;;;;;;6.35;2.78;;;;;;;5.17;82.14;95411.00;5058376;28;20203;-76
2022/11/26 08:04:45;;;;;;;5.25;3.08;;;;;;;5.26;81.50;95413.91;5057840;28;20590;-76
2022/11/26 08:07:12;;;;;;;4.20;2.63;;;;;;;5.13;81.60;95411.78;5059203;28;20337;-75
2022/11/26 08:09:39;;;;;;;7.32;4.20;;;;;;;4.75;82.04;95408.69;5060047;28;20203;-76
2022/11/26 08:12:07;;;;;;;4.45;3.40;;;;;;;5.06;81.73;95403.25;5059425;28;20200;-75
2022/11/26 08:14:34;;;;;;;4.47;3.17;;;;;;;5.21;80.73;95411.22;5056367;28;20234;-78
2022/11/26 08:17:01;;;;;;;4.53;3.42;;;;;;;5.00;80.77;95400.56;5059099;28;20237;-78
2022/11/26 08:19:28;;;;;;;5.68;3.17;;;;;;;5.00;80.69;95405.94;5059786;28;20200;-78
2022/11/26 08:21:54;;;;;;;7.72;3.92;;;;;;;5.57;80.63;95399.25;5058129;28;20716;-77
2022/11/26 08:24:22;;;;;;;6.50;4.03;;;;;;;5.52;79.16;95407.34;5060427;28;20208;-77
2022/11/26 08:26:49;;;;;;;5.63;3.53;;;;;;;5.57;78.82;95407.31;5050599;28;20666;-77
2022/11/26 08:29:17;;;;;;;6.80;4.50;;;;;;;5.50;79.11;95406.81;5059314;28;20199;-77
2022/11/26 08:31:44;;;;;;;6.10;3.47;;;;;;;5.32;79.24;95412.81;5052744;28;20200;-78
2022/11/26 08:34:13;;;;;;;4.43;3.38;;;;;;;5.28;79.48;95401.00;5067639;28;20296;-78
2022/11/26 08:36:40;;;;;;;3.90;2.60;;;;;;;5.12;80.08;95407.50;5070635;28;20245;-78
2022/11/26 08:39:07;;;;;;;17.63;5.25;;;;;;;4.96;80.18;95404.06;5051788;28;20234;-78
2022/11/26 08:41:34;;;;;;;17.48;6.25;;;;;;;4.92;81.26;95409.16;5061294;28;20709;-78
2022/11/26 08:44:00;;;;;;;6.45;3.33;;;;;;;4.49;81.15;95413.28;5051359;28;20208;-77
2022/11/26 08:46:28;;;;;;;4.90;2.63;;;;;;;4.14;82.47;95411.41;5051106;28;20249;-78
2022/11/26 08:48:56;;;;;;;2.10;1.35;;;;;;;4.07;82.75;95416.22;5064245;28;20203;-76
2022/11/26 08:51:23;;;;;;;6.68;3.20;;;;;;;4.07;82.82;95426.97;5055720;28;20208;-78
2022/11/26 08:53:53;;;;;;;7.88;4.50;;;;;;;4.44;82.59;95423.19;5064724;28;20614;-78
2022/11/26 08:56:20;;;;;;;6.22;4.03;;;;;;;4.80;80.87;95419.38;5060049;28;20230;-79
2022/11/26 08:58:47;;;;;;;6.10;3.88;;;;;;;5.22;79.07;95423.56;5055045;28;20200;-79
2022/11/26 09:01:18;;;;;;;4.85;3.85;;;;;;;5.76;77.98;95422.78;5060660;28;20257;-78
2022/11/26 09:03:48;;;;;;;13.57;4.00;;;;;;;5.78;75.99;95417.94;5056837;28;20187;-78
2022/11/26 09:06:15;;;;;;;6.97;3.08;;;;;;;5.99;76.07;95422.16;5054670;28;20203;-78
2022/11/26 09:11:27;;;;;;;10.70;4.88;;;;;;;6.75;72.98;95405.41;5058740;28;20199;-79
2022/11/26 09:13:54;;;;;;;5.45;3.08;;;;;;;6.92;71.92;95413.03;5060559;28;20187;-79
2022/11/26 09:16:21;;;;;;;8.38;3.92;;;;;;;6.66;72.20;95415.19;5050036;28;20239;-79
2022/11/26 09:18:50;;;;;;;6.38;3.70;;;;;;;7.11;71.28;95417.41;5049471;28;20269;-79
2022/11/26 09:21:17;;;;;;;7.25;4.40;;;;;;;7.39;70.16;95417.63;5049658;28;20215;-79
2022/11/26 09:23:44;;;;;;;5.78;3.78;;;;;;;7.16;69.73;95415.75;5049779;28;20353;-79
2022/11/26 09:26:11;;;;;;;6.80;4.53;;;;;;;7.27;69.90;95409.16;5049973;28;20227;-79
2022/11/26 09:28:39;;;;;;;7.38;4.00;;;;;;;7.48;68.93;95402.44;5051993;28;20199;-78
2022/11/26 09:31:06;;;;;;;7.97;4.13;;;;;;;7.36;69.47;95402.06;5050778;28;20226;-78
2022/11/26 09:33:33;;;;;;;8.55;4.30;;;;;;;7.38;69.42;95406.03;5054944;28;20549;-79
2022/11/26 09:36:05;;;;;;;10.85;5.93;;;;;;;7.42;70.12;95406.28;5055399;28;20204;-78
2022/11/26 09:38:33;;;;;;;9.88;3.92;;;;;;;7.53;69.00;95396.16;5051802;28;20245;-78
2022/11/26 09:41:09;;;;;;;5.40;3.67;;;;;;;7.70;68.18;95402.69;5061299;28;20211;-79
2022/11/26 09:43:57;;;;;;;9.70;4.13;;;;;;;7.66;68.26;95401.66;5047485;28;20203;-78
2022/11/26 09:46:32;;;;;;;6.65;3.85;;;;;;;7.51;68.09;95387.59;5059900;28;20187;-80
2022/11/26 09:49:00;;;;;;;8.85;4.78;;;;;;;7.19;70.17;95388.25;5050196;28;20195;-78
2022/11/26 09:51:34;;;;;;;5.50;3.55;;;;;;;7.26;69.57;95386.78;5056221;28;20682;-79
2022/11/26 09:54:03;;;;;;;8.88;4.38;;;;;;;7.61;68.93;95388.25;5049510;28;20204;-79
2022/11/26 09:56:31;;;;;;;7.60;4.60;;;;;;;7.65;67.55;95383.91;5049776;28;20239;-79
2022/11/26 09:59:04;;;;;;;5.47;3.85;;;;;;;7.65;67.79;95381.19;5049395;28;20740;-78
2022/11/26 10:01:33;;;;;;;6.75;3.65;;;;;;;7.39;67.80;95380.69;5049711;28;20199;-78
2022/11/26 10:04:00;;;;;;;4.97;3.45;;;;;;;6.89;69.68;95371.31;5049319;28;20208;-79
2022/11/26 10:06:41;;;;;;;7.82;5.40;;;;;;;6.96;69.99;95360.22;5048405;28;20574;-79
2022/11/26 10:09:20;;;;;;;7.45;4.78;;;;;;;6.96;70.34;95358.34;5049388;28;20199;-79
2022/11/26 10:11:54;;;;;;;6.68;4.07;;;;;;;6.49;70.80;95366.34;5049302;28;20245;-79
2022/11/26 10:14:34;;;;;;;10.63;4.38;;;;;;;6.39;72.13;95359.97;5049774;28;20531;-79
2022/11/26 10:17:18;;;;;;;5.28;2.97;;;;;;;6.27;71.76;95364.94;5057499;28;20214;-78
2022/11/26 10:20:04;;;;;;;6.13;3.67;;;;;;;6.50;71.62;95362.56;5050759;28;20542;-79
2022/11/26 10:22:37;;;;;;;7.85;4.25;;;;;;;6.85;70.00;95359.50;5049606;28;20238;-80
2022/11/26 10:25:15;;;;;;;8.77;4.22;;;;;;;6.70;70.30;95354.28;5049282;28;20203;-79
2022/11/26 10:27:42;;;;;;;10.18;5.07;;;;;;;7.19;69.47;95358.59;5048849;28;20242;-78
2022/11/26 10:30:18;;;;;;;5.50;3.30;;;;;;;7.23;68.73;95349.66;5048801;28;20730;-78
2022/11/26 10:32:46;;;;;;;9.15;5.55;;;;;;;6.64;70.14;95347.34;5048314;28;20745;-78
2022/11/26 10:35:16;;;;;;;12.75;5.80;;;;;;;7.05;69.77;95340.44;5048453;28;20215;-78
2022/11/26 10:37:44;;;;;;;7.13;3.63;;;;;;;6.61;70.13;95345.22;5048782;28;20261;-77
2022/11/26 10:40:23;;;;;;;5.47;3.42;;;;;;;6.52;71.44;95341.56;5048426;28;20269;-79
2022/11/26 10:42:58;;;;;;;10.10;4.82;;;;;;;6.37;72.01;95353.28;5049229;28;20724;-79
2022/11/26 10:45:34;;;;;;;10.02;4.00;;;;;;;6.67;71.20;95341.41;5049208;28;20265;-79
2022/11/26 10:48:15;;;;;;;8.15;5.10;;;;;;;6.69;70.28;95348.13;5047781;28;20233;-78
2022/11/26 10:50:58;;;;;;;14.27;5.75;;;;;;;6.54;70.93;95347.47;5055379;28;20281;-77
2022/11/26 10:53:28;;;;;;;8.50;5.00;;;;;;;7.03;70.80;95334.53;5052581;28;20662;-78
2022/11/26 10:55:57;;;;;;;16.10;5.32;;;;;;;7.40;69.69;95338.38;5052666;28;20638;-78
2022/11/26 10:58:26;;;;;;;7.32;4.18;;;;;;;7.10;69.25;95344.97;5052390;28;20257;-77
2022/11/26 11:00:57;;;;;;;7.20;4.18;;;;;;;6.99;70.60;95341.56;5052979;28;20203;-77
2022/11/26 11:03:26;;;;;;;14.32;4.53;;;;;;;7.08;69.88;95341.75;5051987;28;20217;-78
2022/11/26 11:06:11;;;;;;;6.40;4.40;;;;;;;6.96;69.24;95350.25;5052071;28;20203;-78
2022/11/26 11:08:40;;;;;;;9.63;5.55;;;;;;;6.95;69.94;95348.66;5052116;28;20293;-78
2022/11/26 11:11:20;;;;;;;7.60;3.72;;;;;;;7.11;69.77;95347.34;5051363;28;20225;-79
2022/11/26 11:13:47;;;;;;;9.05;4.50;;;;;;;7.29;69.26;95350.38;5052347;28;20757;-77
2022/11/26 11:16:16;;;;;;;7.25;4.25;;;;;;;7.48;67.69;95341.25;5055852;28;20673;-76
2022/11/26 11:18:50;;;;;;;11.18;4.25;;;;;;;7.34;68.31;95353.03;5060875;28;20269;-77
2022/11/26 11:21:19;;;;;;;7.93;4.00;;;;;;;7.06;68.29;95346.63;5052002;28;20608;-78
2022/11/26 11:23:47;;;;;;;6.00;4.00;;;;;;;7.00;69.12;95348.56;5051715;28;20592;-78
2022/11/26 11:26:19;;;;;;;8.23;4.80;;;;;;;7.03;69.27;95350.69;5065151;28;20555;-78
2022/11/26 11:28:48;;;;;;;9.05;3.90;;;;;;;7.08;67.99;95342.56;5064835;28;20666;-78
2022/11/26 11:31:18;;;;;;;5.57;3.60;;;;;;;6.93;68.07;95341.94;5051585;28;20671;-78
2022/11/26 11:33:45;;;;;;;3.92;3.15;;;;;;;6.85;68.16;95343.34;5051714;28;20239;-79
2022/11/26 11:36:27;;;;;;;13.05;4.65;;;;;;;6.99;69.20;95344.28;5060832;28;20199;-75
2022/11/26 11:38:57;;;;;;;7.93;4.30;;;;;;;7.35;68.09;95341.16;5051821;28;20548;-78
2022/11/26 11:41:28;;;;;;;3.53;2.70;;;;;;;7.35;67.44;95333.06;5050446;28;20211;-75
2022/11/26 11:44:06;;;;;;;8.35;4.45;;;;;;;7.01;69.25;95331.31;5051876;28;20210;-78
2022/11/26 11:47:03;;;;;;;7.68;4.97;;;;;;;7.09;69.59;95333.41;5051911;28;20237;-75
2022/11/26 11:49:57;;;;;;;6.00;4.15;;;;;;;7.43;69.27;95337.81;5050712;28;20233;-75
2022/11/26 11:52:34;;;;;;;10.88;5.65;;;;;;;7.50;68.76;95338.28;5050497;28;20261;-77
2022/11/26 11:55:17;;;;;;;8.82;5.15;;;;;;;7.52;68.35;95324.50;5051680;28;20593;-76